EmailTwitter


Surface observations / Quebec / CYUL (71627)

Regions: Quebec | Canada | USA | Europe | France | UK | Elsewhere
Station
Display
Info & Location for CYUL (71627) | Help decoding METAR

Weather Conditions observed on 2020/04/04 at 17:00 UTC at MONTREAL INTL A, QB (CYUL)

Sky conditions: few clouds.

Temperature: 11.0 Celsius.

Dewpoint: 3.0 Celsius.

Relative Humidity: 58%

Windchill Factor: 9.

Winds: North-northeast at 19 km/h or 10 knots.

Mean Sea level Pressure: 101.78 kilopascals.

Altimeter Setting (QNH): 101.76 kilopascals or 30.05 inches of mercury.

Horizontal visibility: 15.00 statute miles or 24.00 kilometers.

Coded METAR:

CYUL 041700Z 02010KT 340V060 15SM FEW030 FEW180 FEW240 11/03 A3005 RMK

CF1AC1CI1 CF TR CI TR SLP178=